Time;durP1;ratioP1;P1;durP2;ratioP2;P2;SDS_P1;SDS_P2;PMS_P1;PMS_P2;Temp;Humidity;BMP_temperature;BMP_pressure;BME280_temperature;BME280_humidity;BME280_pressure;Samples;Min_cycle;Max_cycle;Signal;HPM_P1;HPM_P2
2022/05/04 00:00:29;;;;;;;7.93;6.80;;;15.80;72.30;;;-142.21;100.00;112049.66;5054215;28;20478;-78
2022/05/04 00:02:56;;;;;;;6.47;5.87;;;15.70;72.00;;;-142.21;100.00;112049.66;5054577;28;20454;-78
2022/05/04 00:05:23;;;;;;;7.07;5.80;;;15.70;71.80;;;-142.21;100.00;112049.66;5053929;28;20489;-77
2022/05/04 00:07:51;;;;;;;6.40;5.83;;;15.70;71.70;;;-142.21;100.00;112049.66;5054388;28;20953;-77
2022/05/04 00:10:18;;;;;;;6.80;5.97;;;15.70;72.10;;;-142.21;100.00;112049.66;5054461;28;20455;-77
2022/05/04 00:12:45;;;;;;;11.50;6.87;;;15.50;73.50;;;-142.21;100.00;112049.66;5023240;28;20906;-77
2022/05/04 00:15:14;;;;;;;6.20;5.70;;;15.50;73.00;;;-142.21;100.00;112049.66;5052388;28;21051;-77
2022/05/04 00:17:41;;;;;;;7.23;6.47;;;15.50;73.90;;;-142.21;100.00;112049.66;5053367;28;20535;-76
2022/05/04 00:20:09;;;;;;;6.00;5.40;;;15.50;73.50;;;-142.21;100.00;112049.66;5053998;28;20460;-77
2022/05/04 00:22:37;;;;;;;7.30;6.60;;;15.50;73.10;;;-142.21;100.00;112049.66;5033423;28;20488;-77
2022/05/04 00:25:05;;;;;;;9.83;6.30;;;15.50;72.70;;;-142.21;100.00;112049.66;5052436;28;20933;-77
2022/05/04 00:27:33;;;;;;;6.97;6.27;;;15.60;72.30;;;-142.21;100.00;112049.66;5053380;28;20961;-77
2022/05/04 00:30:00;;;;;;;6.60;5.80;;;15.60;71.90;;;-142.21;100.00;112049.66;5053675;28;20821;-77
2022/05/04 00:32:28;;;;;;;6.50;5.87;;;15.50;72.10;;;-142.21;100.00;112049.66;5053982;28;20447;-78
2022/05/04 00:34:56;;;;;;;7.13;5.97;;;15.60;71.70;;;-142.21;100.00;112049.66;5053390;28;20541;-77
2022/05/04 00:37:23;;;;;;;7.60;6.10;;;15.60;71.70;;;-142.21;100.00;112049.66;5053587;28;20454;-76
2022/05/04 00:39:50;;;;;;;7.17;5.63;;;15.60;71.60;;;-142.21;100.00;112049.66;5053377;28;20505;-77
2022/05/04 00:42:20;;;;;;;7.73;5.70;;;15.40;71.70;;;-142.21;100.00;112049.66;5053855;28;20443;-76
2022/05/04 00:44:50;;;;;;;6.10;5.53;;;15.50;71.90;;;-142.21;100.00;112049.66;5053548;28;20514;-77
2022/05/04 00:47:17;;;;;;;6.13;5.63;;;15.50;71.60;;;-142.21;100.00;112049.66;5053826;28;20444;-77
2022/05/04 00:49:49;;;;;;;8.67;5.90;;;15.40;71.70;;;-142.21;100.00;112049.66;5053306;28;20462;-78
2022/05/04 00:52:18;;;;;;;6.87;6.17;;;15.30;71.60;;;-142.21;100.00;112049.66;5053473;28;20528;-77
2022/05/04 00:54:51;;;;;;;5.97;5.37;;;15.40;72.70;;;-142.21;100.00;112049.66;5053586;28;20831;-77
2022/05/04 00:58:54;;;;;;;6.33;5.80;;;15.40;71.30;;;-142.21;100.00;112049.66;5053824;28;20539;-77
2022/05/04 01:00:11;;;;;;;9.53;5.43;;;15.30;71.20;;;-142.21;100.00;112049.66;5052648;28;20811;-77
2022/05/04 01:02:39;;;;;;;5.43;4.93;;;15.30;71.00;;;-142.21;100.00;112049.66;5053139;28;20441;-76
2022/05/04 01:05:10;;;;;;;6.40;5.60;;;15.20;71.00;;;-142.21;100.00;112049.66;5051284;28;20844;-77
2022/05/04 01:07:38;;;;;;;5.10;4.60;;;15.20;71.10;;;-142.21;100.00;112049.66;5053482;28;20475;-77
2022/05/04 01:10:08;;;;;;;7.00;5.17;;;15.10;71.20;;;-142.21;100.00;112049.66;5034332;28;20472;-76
2022/05/04 01:12:36;;;;;;;5.30;4.80;;;15.10;71.20;;;-142.21;100.00;112049.66;5053381;28;20535;-77
2022/05/04 01:15:03;;;;;;;6.53;5.10;;;15.10;70.80;;;-142.21;100.00;112049.66;5053353;28;20484;-78
2022/05/04 01:17:31;;;;;;;6.50;5.03;;;15.00;72.20;;;-142.21;100.00;112049.66;5052799;28;21024;-77
2022/05/04 01:19:59;;;;;;;5.30;4.80;;;15.00;71.80;;;-142.21;100.00;112049.66;5052672;28;20460;-77
2022/05/04 01:22:27;;;;;;;6.47;5.03;;;15.00;71.60;;;-142.21;100.00;112049.66;5052298;28;20535;-77
2022/05/04 01:24:54;;;;;;;6.40;5.70;;;15.00;71.80;;;-142.21;100.00;112049.66;5033324;28;20540;-76
2022/05/04 01:27:22;;;;;;;5.30;4.80;;;15.00;71.30;;;-142.21;100.00;112049.66;5046070;28;20860;-77
2022/05/04 01:29:49;;;;;;;5.73;5.23;;;14.90;71.30;;;-142.21;100.00;112049.66;5052767;28;20508;-77
2022/05/04 01:32:16;;;;;;;5.47;4.60;;;14.90;71.40;;;-142.21;100.00;112049.66;5051916;28;20523;-76
2022/05/04 01:38:26;;;;;;;5.43;4.77;;;14.90;72.20;;;-142.21;100.00;112049.66;5042046;28;20435;-76
2022/05/04 01:40:59;;;;;;;7.30;5.60;;;14.90;72.10;;;-142.21;100.00;112049.66;5052277;28;22058;-77
2022/05/04 01:43:26;;;;;;;5.70;4.80;;;14.90;71.20;;;-142.21;100.00;112049.66;5052142;28;20952;-78
2022/05/04 01:45:54;;;;;;;5.73;4.53;;;15.00;71.10;;;-142.21;100.00;112049.66;5052786;28;20527;-76
2022/05/04 01:48:21;;;;;;;5.30;4.80;;;14.90;70.90;;;-142.21;100.00;112049.66;5052932;28;20487;-76
2022/05/04 01:50:49;;;;;;;6.43;4.90;;;15.10;70.70;;;-142.21;100.00;112049.66;5051552;28;20562;-77
2022/05/04 01:53:16;;;;;;;5.87;4.77;;;15.20;70.40;;;-142.21;100.00;112049.66;5052349;28;20450;-77
2022/05/04 01:55:49;;;;;;;5.23;4.73;;;15.20;70.00;;;-142.21;100.00;112049.66;5051897;28;20480;-77
2022/05/04 01:58:16;;;;;;;5.90;5.30;;;15.20;70.20;;;-142.21;100.00;112049.66;5052218;28;20444;-76
2022/05/04 02:00:43;;;;;;;5.50;4.93;;;15.20;70.30;;;-142.21;100.00;112049.66;5051499;28;20495;-76
2022/05/04 02:03:11;;;;;;;5.07;4.67;;;15.10;70.80;;;-142.21;100.00;112049.66;5052094;28;20476;-76
2022/05/04 02:05:42;;;;;;;6.10;5.50;;;14.90;71.30;;;-142.21;100.00;112049.66;5051869;28;20782;-75
2022/05/04 02:08:10;;;;;;;5.50;5.00;;;14.90;71.90;;;-142.21;100.00;112049.66;5051955;28;20464;-76
2022/05/04 02:10:37;;;;;;;6.70;5.00;;;14.90;71.90;;;-142.21;100.00;112049.66;5066983;28;20547;-75
2022/05/04 02:13:06;;;;;;;5.73;4.63;;;14.90;72.40;;;-142.21;100.00;112049.66;5049929;28;20498;-76
2022/05/04 02:15:33;;;;;;;4.97;4.43;;;14.80;72.30;;;-142.21;100.00;112049.66;5051784;28;21002;-77
2022/05/04 02:18:02;;;;;;;4.90;4.40;;;14.80;71.70;;;-142.21;100.00;112049.66;5051971;28;20451;-76
2022/05/04 02:20:29;;;;;;;6.70;4.80;;;14.80;71.50;;;-142.21;100.00;112049.66;5051554;28;20440;-75
2022/05/04 02:22:56;;;;;;;5.60;5.00;;;14.70;71.70;;;-142.21;100.00;112049.66;5050779;28;20486;-76
2022/05/04 02:25:24;;;;;;;5.63;5.10;;;14.70;71.80;;;-142.21;100.00;112049.66;5051532;28;20956;-76
2022/05/04 02:27:51;;;;;;;5.73;5.13;;;14.80;71.80;;;-142.21;100.00;112049.66;5051039;28;20476;-76
2022/05/04 02:30:20;;;;;;;6.20;5.07;;;14.80;71.70;;;-142.21;100.00;112049.66;5052382;28;20518;-77
2022/05/04 02:32:47;;;;;;;7.83;4.90;;;14.80;72.50;;;-142.21;100.00;112049.66;5050974;28;20463;-77
2022/05/04 02:38:00;;;;;;;6.80;5.73;;;14.90;72.20;;;-142.21;100.00;112049.66;5056000;28;20443;-78
2022/05/04 02:40:27;;;;;;;6.23;5.50;;;14.90;72.00;;;-142.21;100.00;112049.66;5055862;28;20448;-77
2022/05/04 02:42:55;;;;;;;5.20;4.70;;;14.90;71.70;;;-142.21;100.00;112049.66;5071332;28;20510;-77
2022/05/04 02:45:24;;;;;;;7.17;5.07;;;14.90;71.60;;;-142.21;100.00;112049.66;5056114;28;20447;-77
2022/05/04 02:47:51;;;;;;;5.70;5.10;;;14.80;71.30;;;-142.21;100.00;112049.66;5055301;28;20444;-76
2022/05/04 02:50:18;;;;;;;7.30;5.17;;;14.80;71.20;;;-142.21;100.00;112049.66;5055516;28;20788;-76
2022/05/04 02:52:45;;;;;;;5.27;4.87;;;14.80;71.30;;;-142.21;100.00;112049.66;5054818;28;20452;-77
2022/05/04 02:55:13;;;;;;;5.70;5.20;;;14.80;71.60;;;-142.21;100.00;112049.66;5056129;28;20843;-77
2022/05/04 02:57:44;;;;;;;6.53;4.83;;;14.70;71.10;;;-142.21;100.00;112049.66;5055111;28;20455;-77
2022/05/04 03:00:14;;;;;;;5.07;4.57;;;14.80;71.10;;;-142.21;100.00;112049.66;5055171;28;20535;-78
2022/05/04 03:02:42;;;;;;;6.47;5.27;;;14.70;72.00;;;-142.21;100.00;112049.66;5054849;28;20476;-77
2022/05/04 03:05:11;;;;;;;5.30;4.80;;;14.70;72.20;;;-142.21;100.00;112049.66;5055412;28;20476;-76
2022/05/04 03:07:39;;;;;;;5.03;4.53;;;14.60;71.90;;;-142.21;100.00;112049.66;5055106;28;20882;-76
2022/05/04 03:10:08;;;;;;;6.13;4.93;;;14.60;71.10;;;-142.21;100.00;112049.66;5055711;28;20444;-76
2022/05/04 03:12:35;;;;;;;7.13;4.93;;;14.60;71.30;;;-142.21;100.00;112049.66;5054472;28;20567;-77
2022/05/04 03:15:06;;;;;;;6.70;4.60;;;14.70;72.30;;;-142.21;100.00;112049.66;5055484;28;20466;-77
2022/05/04 03:17:34;;;;;;;5.10;4.47;;;14.70;71.30;;;-142.21;100.00;112049.66;5054648;28;20448;-76
2022/05/04 03:20:05;;;;;;;6.30;4.90;;;14.70;71.40;;;-142.21;100.00;112049.66;5055275;28;20444;-76
2022/05/04 03:22:32;;;;;;;5.20;4.53;;;14.70;71.20;;;-142.21;100.00;112049.66;5054928;28;20448;-76
2022/05/04 03:25:06;;;;;;;5.33;4.83;;;14.80;71.30;;;-142.21;100.00;112049.66;5042386;28;20964;-78
2022/05/04 03:27:34;;;;;;;5.47;4.97;;;14.90;71.00;;;-142.21;100.00;112049.66;5046821;28;20523;-75
2022/05/04 03:30:01;;;;;;;6.10;5.50;;;15.00;70.40;;;-142.21;100.00;112049.66;5055025;28;20478;-76
2022/05/04 03:32:28;;;;;;;6.20;5.03;;;15.00;70.00;;;-142.21;100.00;112049.66;5055037;28;20451;-76
2022/05/04 03:34:55;;;;;;;5.43;4.93;;;15.00;69.80;;;-142.21;100.00;112049.66;5054560;28;20448;-77
2022/05/04 03:37:24;;;;;;;6.17;5.57;;;14.90;70.40;;;-142.21;100.00;112049.66;5054825;28;20512;-77
2022/05/04 03:39:51;;;;;;;5.57;5.07;;;14.80;70.90;;;-142.21;100.00;112049.66;5054286;28;20480;-74
2022/05/04 03:42:27;;;;;;;5.40;4.63;;;14.70;71.10;;;-142.21;100.00;112049.66;5054748;28;20527;-77
2022/05/04 03:44:56;;;;;;;5.60;5.00;;;14.80;71.30;;;-142.21;100.00;112049.66;5054447;28;20511;-76
2022/05/04 03:47:23;;;;;;;5.53;5.03;;;14.80;72.00;;;-142.21;100.00;112049.66;5037649;28;20444;-77
2022/05/04 03:49:50;;;;;;;5.53;5.00;;;14.60;71.20;;;-142.21;100.00;112049.66;5054569;28;20848;-77
2022/05/04 03:52:18;;;;;;;6.13;5.20;;;14.80;71.40;;;-142.21;100.00;112049.66;5054105;28;20460;-77
2022/05/04 03:54:47;;;;;;;5.80;5.20;;;14.90;71.00;;;-142.21;100.00;112049.66;5054182;28;20954;-76
2022/05/04 03:57:15;;;;;;;5.27;4.77;;;15.00;70.80;;;-142.21;100.00;112049.66;5054230;28;20480;-76
2022/05/04 03:59:43;;;;;;;5.63;5.13;;;15.00;70.70;;;-142.21;100.00;112049.66;5053921;28;20448;-76
2022/05/04 04:02:10;;;;;;;6.13;5.53;;;15.10;71.50;;;-142.21;100.00;112049.66;5054186;28;20536;-76
2022/05/04 04:04:37;;;;;;;6.03;5.43;;;15.10;70.60;;;-142.21;100.00;112049.66;5053574;28;20525;-76
2022/05/04 04:07:05;;;;;;;6.30;5.70;;;15.10;70.80;;;-142.21;100.00;112049.66;5054626;28;20631;-77
2022/05/04 04:09:33;;;;;;;5.33;4.83;;;15.00;71.20;;;-142.21;100.00;112049.66;5052391;28;20489;-77
2022/05/04 04:12:02;;;;;;;6.47;5.07;;;15.00;70.80;;;-142.21;100.00;112049.66;5054242;28;20451;-76
2022/05/04 04:14:29;;;;;;;6.47;5.87;;;14.70;70.70;;;-142.21;100.00;112049.66;5053841;28;20487;-77
2022/05/04 04:16:56;;;;;;;6.50;5.37;;;14.80;71.20;;;-142.21;100.00;112049.66;5053457;28;20570;-77
2022/05/04 04:19:23;;;;;;;5.83;5.03;;;14.90;71.10;;;-142.21;100.00;112049.66;5054144;28;20515;-77
2022/05/04 04:21:53;;;;;;;5.47;4.97;;;14.80;70.70;;;-142.21;100.00;112049.66;5053416;28;20540;-76
2022/05/04 04:24:21;;;;;;;6.00;5.40;;;14.90;70.60;;;-142.21;100.00;112049.66;5041406;28;20452;-77
2022/05/04 04:26:49;;;;;;;5.73;5.13;;;14.80;70.70;;;-142.21;100.00;112049.66;5053096;28;20490;-77
2022/05/04 04:29:18;;;;;;;6.40;5.53;;;14.80;70.80;;;-142.21;100.00;112049.66;5069183;28;20450;-77
2022/05/04 04:31:45;;;;;;;5.70;5.20;;;14.90;70.60;;;-142.21;100.00;112049.66;5053297;28;20444;-77
2022/05/04 04:34:13;;;;;;;5.77;5.27;;;15.00;70.00;;;-142.21;100.00;112049.66;5053277;28;20801;-77
2022/05/04 04:36:40;;;;;;;5.83;5.20;;;15.00;70.10;;;-142.21;100.00;112049.66;5053364;28;20488;-76
2022/05/04 04:39:10;;;;;;;5.90;5.30;;;15.00;70.60;;;-142.21;100.00;112049.66;5054161;28;20460;-77
2022/05/04 04:41:37;;;;;;;7.90;5.20;;;15.00;70.70;;;-142.21;100.00;112049.66;5053396;28;20476;-76
2022/05/04 04:44:05;;;;;;;6.40;5.60;;;15.10;70.50;;;-142.21;100.00;112049.66;5053887;28;20456;-77
2022/05/04 04:46:33;;;;;;;6.83;5.33;;;15.00;71.00;;;-142.21;100.00;112049.66;5053910;28;20510;-77
2022/05/04 04:49:01;;;;;;;6.90;6.20;;;15.00;71.30;;;-142.21;100.00;112049.66;5053955;28;20449;-77
2022/05/04 04:51:28;;;;;;;8.37;6.10;;;15.00;71.20;;;-142.21;100.00;112049.66;5053359;28;20480;-76
2022/05/04 04:53:55;;;;;;;6.70;5.70;;;15.10;71.30;;;-142.21;100.00;112049.66;5053584;28;20487;-77
2022/05/04 04:56:22;;;;;;;6.70;6.00;;;15.00;71.20;;;-142.21;100.00;112049.66;5053707;28;20480;-78
2022/05/04 04:58:51;;;;;;;5.87;5.37;;;15.00;71.40;;;-142.21;100.00;112049.66;5052614;28;20479;-76
2022/05/04 05:01:19;;;;;;;6.67;5.30;;;15.10;71.60;;;-142.21;100.00;112049.66;5053367;28;20449;-77
2022/05/04 05:03:47;;;;;;;6.63;5.73;;;15.10;71.60;;;-142.21;100.00;112049.66;5046130;28;20453;-77
2022/05/04 05:06:15;;;;;;;7.03;6.33;;;15.10;71.60;;;-142.21;100.00;112049.66;5036087;28;20527;-77
2022/05/04 05:08:44;;;;;;;6.37;5.77;;;15.10;71.60;;;-142.21;100.00;112049.66;5052593;28;20539;-76
2022/05/04 05:11:12;;;;;;;7.77;6.30;;;15.10;71.80;;;-142.21;100.00;112049.66;5052651;28;20459;-78
2022/05/04 05:16:20;;;;;;;6.00;5.40;;;15.10;71.80;;;-142.21;100.00;112049.66;5052732;28;20468;-76
2022/05/04 05:18:49;;;;;;;7.00;5.60;;;15.10;72.20;;;-142.21;100.00;112049.66;5046041;28;20453;-77
2022/05/04 05:21:16;;;;;;;6.40;5.80;;;15.10;72.30;;;-142.21;100.00;112049.66;5052417;28;20963;-79
2022/05/04 05:23:43;;;;;;;6.03;5.43;;;15.10;72.50;;;-142.21;100.00;112049.66;5050115;28;20448;-78
2022/05/04 05:26:10;;;;;;;6.23;5.63;;;15.10;72.90;;;-142.21;100.00;112049.66;5050671;28;20528;-78
2022/05/04 05:28:38;;;;;;;5.80;5.30;;;15.10;73.00;;;-142.21;100.00;112049.66;5052655;28;21005;-78
2022/05/04 05:31:06;;;;;;;6.40;5.80;;;15.10;73.00;;;-142.21;100.00;112049.66;5053010;28;20448;-79
2022/05/04 05:33:45;;;;;;;6.90;6.27;;;15.20;72.60;;;-142.21;100.00;112049.66;5052775;28;20452;-78
2022/05/04 05:36:13;;;;;;;6.70;6.03;;;15.30;72.30;;;-142.21;100.00;112049.66;5052824;28;20495;-79
2022/05/04 05:38:41;;;;;;;7.23;6.20;;;15.30;72.20;;;-142.21;100.00;112049.66;5052515;28;20459;-79
2022/05/04 05:41:08;;;;;;;7.47;5.73;;;15.30;72.10;;;-142.21;100.00;112049.66;5052810;28;20483;-76
2022/05/04 05:43:35;;;;;;;6.73;5.73;;;15.30;72.30;;;-142.21;100.00;112049.66;5052297;28;20539;-78
2022/05/04 05:46:02;;;;;;;6.03;5.50;;;15.30;72.40;;;-142.21;100.00;112049.66;5050405;28;20535;-78
2022/05/04 05:48:29;;;;;;;8.03;6.37;;;15.30;72.60;;;-142.21;100.00;112049.66;5052694;28;20470;-78
2022/05/04 05:50:56;;;;;;;6.60;5.23;;;15.30;72.70;;;-142.21;100.00;112049.66;5052338;28;20531;-77
2022/05/04 05:53:25;;;;;;;6.80;6.10;;;15.40;72.90;;;-142.21;100.00;112049.66;5052811;28;20943;-78
2022/05/04 05:55:52;;;;;;;6.67;5.97;;;15.50;73.00;;;-142.21;100.00;112049.66;5052041;28;20476;-77
2022/05/04 05:58:28;;;;;;;6.87;5.90;;;15.80;72.20;;;-142.21;100.00;112049.66;5051826;28;20488;-78
2022/05/04 06:00:59;;;;;;;5.90;5.30;;;15.90;72.40;;;-142.21;100.00;112049.66;5051936;28;20519;-77
2022/05/04 06:03:27;;;;;;;7.83;5.43;;;16.00;72.60;;;-142.21;100.00;112049.66;5050219;28;20441;-76
2022/05/04 06:05:54;;;;;;;6.77;5.63;;;16.10;71.40;;;-142.21;100.00;112049.66;5051828;28;20440;-78
2022/05/04 06:08:26;;;;;;;7.37;6.33;;;16.20;71.70;;;-142.21;100.00;112049.66;5037847;28;20438;-77
2022/05/04 06:10:53;;;;;;;6.67;5.97;;;16.30;72.20;;;-142.21;100.00;112049.66;5031790;28;20457;-78
2022/05/04 06:13:20;;;;;;;6.70;6.10;;;16.30;71.20;;;-142.21;100.00;112049.66;5031965;28;20480;-79
2022/05/04 06:15:47;;;;;;;7.27;6.37;;;16.40;71.40;;;-142.21;100.00;112049.66;5038274;28;20539;-77
2022/05/04 06:18:14;;;;;;;7.30;6.60;;;16.40;72.40;;;-142.21;100.00;112049.66;5032141;28;21001;-77
2022/05/04 06:20:44;;;;;;;7.73;6.50;;;16.50;72.20;;;-142.21;100.00;112049.66;5034747;28;20818;-77
2022/05/04 06:23:11;;;;;;;7.40;6.67;;;16.70;72.90;;;-142.21;100.00;112049.66;5046129;28;20500;-78
2022/05/04 06:25:41;;;;;;;7.33;6.63;;;16.80;72.00;;;-142.21;100.00;112049.66;5036819;28;20925;-78
2022/05/04 06:28:08;;;;;;;9.00;7.30;;;16.80;71.80;;;-142.21;100.00;112049.66;5037526;28;20449;-78
2022/05/04 06:36:05;;;;;;;7.70;6.30;;;17.10;72.00;;;-142.21;100.00;112049.66;5031738;28;20956;-78
2022/05/04 06:38:32;;;;;;;7.57;6.87;;;17.20;72.20;;;-142.21;100.00;112049.66;5032425;28;20532;-77
2022/05/04 06:41:01;;;;;;;6.60;5.90;;;17.40;72.70;;;-142.21;100.00;112049.66;5031665;28;20454;-78
2022/05/04 06:43:29;;;;;;;7.43;6.73;;;17.60;72.80;;;-142.21;100.00;112049.66;5032426;28;20882;-77
2022/05/04 06:45:56;;;;;;;6.30;5.70;;;18.10;71.70;;;-142.21;100.00;112049.66;5031879;28;20480;-77
2022/05/04 06:48:23;;;;;;;6.50;5.83;;;21.50;63.80;;;-142.21;100.00;112049.66;5032202;28;20445;-77
2022/05/04 06:50:51;;;;;;;5.43;4.93;;;24.50;54.50;;;-142.21;100.00;112049.66;5032123;28;20478;-78
2022/05/04 06:53:18;;;;;;;6.33;5.10;;;27.00;50.50;;;-142.21;100.00;112049.66;5032355;28;20798;-78
2022/05/04 06:55:45;;;;;;;6.53;5.93;;;28.90;46.80;;;-142.21;100.00;112049.66;5031826;28;20224;-77
2022/05/04 06:58:16;;;;;;;7.03;6.33;;;29.90;44.10;;;-142.21;100.00;112049.66;5032314;28;20239;-78
2022/05/04 07:00:44;;;;;;;5.97;5.47;;;30.10;43.20;;;-142.21;100.00;112049.66;5031432;28;20198;-78
2022/05/04 07:03:12;;;;;;;7.23;6.53;;;29.70;41.90;;;-142.21;100.00;112049.66;5032263;28;20214;-77
2022/05/04 07:05:39;;;;;;;6.53;5.83;;;27.60;45.40;;;-142.21;100.00;112049.66;5032226;28;20259;-78
2022/05/04 07:08:07;;;;;;;5.93;5.43;;;28.60;45.10;;;-142.21;100.00;112049.66;5031775;28;20215;-78
2022/05/04 07:10:34;;;;;;;7.07;6.37;;;29.20;42.90;;;-142.21;100.00;112049.66;5032099;28;20264;-77
2022/05/04 07:13:02;;;;;;;6.87;5.73;;;27.30;45.30;;;-142.21;100.00;112049.66;5031193;28;20604;-79
2022/05/04 07:15:30;;;;;;;7.43;6.60;;;25.60;47.80;;;-142.21;100.00;112049.66;5031698;28;20217;-78
2022/05/04 07:17:57;;;;;;;8.70;6.60;;;24.50;50.40;;;-142.21;100.00;112049.66;5031695;28;20232;-79
2022/05/04 07:20:25;;;;;;;7.03;6.40;;;23.90;51.00;;;-142.21;100.00;112049.66;5032331;28;20210;-79
2022/05/04 07:22:52;;;;;;;7.00;6.30;;;23.30;52.00;;;-142.21;100.00;112049.66;5034570;28;20206;-78
2022/05/04 07:25:20;;;;;;;7.40;6.70;;;22.80;51.90;;;-142.21;100.00;112049.66;5050731;28;20233;-78
2022/05/04 07:27:47;;;;;;;7.17;6.47;;;22.50;53.50;;;-142.21;100.00;112049.66;5054917;28;20233;-79
2022/05/04 07:30:15;;;;;;;7.53;6.83;;;22.60;53.90;;;-142.21;100.00;112049.66;5055520;28;20616;-79
2022/05/04 07:32:44;;;;;;;7.53;6.57;;;22.10;54.30;;;-142.21;100.00;112049.66;5055303;28;20301;-79
2022/05/04 07:35:11;;;;;;;7.53;6.83;;;21.80;55.40;;;-142.21;100.00;112049.66;5055417;28;20561;-79
2022/05/04 07:37:42;;;;;;;7.77;7.07;;;21.50;57.00;;;-142.21;100.00;112049.66;5055002;28;20233;-79
2022/05/04 07:43:01;;;;;;;10.40;7.13;;;21.20;56.50;;;-142.21;99.15;112049.66;5058173;28;20268;-79
2022/05/04 07:45:28;;;;;;;9.00;7.17;;;21.10;55.90;;;-142.21;99.78;112049.66;5055354;28;20194;-79
2022/05/04 07:47:57;;;;;;;7.93;7.13;;;21.00;56.80;;;-142.21;98.85;112049.66;5054430;28;20738;-79
2022/05/04 07:50:25;;;;;;;7.77;6.97;;;21.10;57.60;;;-142.21;96.80;112049.66;5055073;28;20206;-78
2022/05/04 07:52:53;;;;;;;7.23;6.53;;;21.30;55.90;;;-142.21;99.88;112049.66;5054174;28;20670;-78
2022/05/04 07:55:20;;;;;;;7.60;6.80;;;21.20;57.70;;;-142.21;99.01;112049.66;5055146;28;20201;-79
2022/05/04 07:57:48;;;;;;;8.67;7.30;;;21.10;56.90;;;-142.21;98.77;112049.66;5054116;28;20230;-78
2022/05/04 08:05:47;;;;;;;8.87;7.47;;;21.00;55.00;;;-142.21;100.00;112049.66;5054291;28;20197;-78
2022/05/04 08:08:14;;;;;;;8.93;8.07;;;20.70;57.80;;;-142.21;100.00;112049.66;5053707;28;20284;-79
2022/05/04 08:10:42;;;;;;;10.50;7.83;;;20.80;58.30;;;-142.21;93.63;112049.66;5054683;28;20436;-79
2022/05/04 08:13:09;;;;;;;8.10;6.87;;;20.70;56.50;;;-142.21;94.03;112049.66;5053277;28;20238;-78
2022/05/04 08:15:37;;;;;;;11.30;7.23;;;20.80;57.60;;;-142.21;99.56;112049.66;5053163;28;20233;-78
2022/05/04 08:18:06;;;;;;;7.63;6.93;;;20.80;59.20;;;-142.21;94.48;112049.66;5053242;28;20222;-78
2022/05/04 08:20:33;;;;;;;7.90;6.97;;;20.80;57.40;;;-142.21;96.90;112049.66;5054007;28;20301;-78
2022/05/04 08:23:01;;;;;;;7.90;7.10;;;20.80;58.50;;;-142.21;97.64;112049.66;5035561;28;20203;-78
2022/05/04 08:25:29;;;;;;;10.30;7.87;;;20.80;60.00;;;-142.21;98.66;112049.66;5034929;28;20211;-75
2022/05/04 08:27:57;;;;;;;8.53;7.67;;;20.80;59.80;;;-142.21;90.57;112049.66;5034485;28;20293;-79
2022/05/04 08:30:25;;;;;;;9.27;6.73;;;20.90;57.30;;;-142.21;94.47;112049.66;5040298;28;20210;-79
2022/05/04 08:32:52;;;;;;;7.40;6.70;;;21.10;58.10;;;-142.21;90.38;112049.66;5034036;28;20249;-80
2022/05/04 08:35:21;;;;;;;13.30;8.07;;;21.30;57.10;;;-142.21;89.35;112049.66;5051449;28;20202;-80
2022/05/04 08:37:50;;;;;;;8.00;6.87;;;21.60;56.40;;;-142.21;87.62;112049.66;5052830;28;20225;-80
2022/05/04 08:40:17;;;;;;;8.73;7.70;;;22.00;56.50;;;-142.21;86.21;112049.66;5053737;28;20285;-78
2022/05/04 08:42:46;;;;;;;8.53;7.27;;;22.20;55.10;;;-142.21;88.54;112049.66;5053932;28;20233;-79
2022/05/04 08:45:14;;;;;;;9.20;6.43;;;22.40;55.90;;;-142.21;84.87;112049.66;5054215;28;20292;-79
2022/05/04 08:47:44;;;;;;;7.23;6.47;;;22.50;54.90;;;-142.21;92.33;112049.66;5053998;28;20294;-79
2022/05/04 08:50:14;;;;;;;8.20;7.40;;;22.50;56.20;;;-142.21;92.95;112049.66;5053201;28;20209;-79
2022/05/04 08:52:52;;;;;;;7.50;6.60;;;22.60;56.00;;;-142.21;90.64;112049.66;5053266;28;20240;-78
2022/05/04 08:55:19;;;;;;;8.07;6.23;;;22.60;55.90;;;-142.21;89.18;112049.66;5053724;28;20643;-79
2022/05/04 08:57:47;;;;;;;7.80;7.10;;;22.50;54.40;;;-142.21;89.19;112049.66;5052921;28;20229;-78
2022/05/04 09:00:19;;;;;;;8.13;6.13;;;22.40;54.50;;;-142.21;90.18;112049.66;5053555;28;20209;-79
2022/05/04 09:02:46;;;;;;;11.90;7.40;;;22.30;55.20;;;-142.21;86.96;112049.66;5053588;28;20221;-80
2022/05/04 09:05:20;;;;;;;7.70;6.60;;;22.30;54.50;;;-142.21;85.73;112049.66;5052954;28;20651;-77
2022/05/04 09:07:51;;;;;;;7.20;6.47;;;22.30;54.80;;;-142.21;84.27;112049.66;5053252;28;20273;-79
2022/05/04 09:10:24;;;;;;;7.20;6.10;;;22.30;53.80;;;-142.21;93.37;112049.66;5053410;28;20252;-79
2022/05/04 09:12:53;;;;;;;7.77;6.20;;;22.30;55.60;;;-142.21;89.41;112049.66;5052825;28;20288;-79
2022/05/04 09:15:23;;;;;;;7.33;6.50;;;22.30;55.20;;;-142.21;89.41;112049.66;5053579;28;20251;-80
2022/05/04 09:17:59;;;;;;;7.90;6.63;;;22.40;54.80;;;-142.21;85.53;112049.66;5052160;28;20225;-77
2022/05/04 09:20:48;;;;;;;8.30;7.07;;;22.40;54.40;;;-142.21;89.32;112049.66;5053014;28;20305;-78
2022/05/04 09:23:20;;;;;;;7.63;6.00;;;22.40;54.80;;;-142.21;85.32;112049.66;5053297;28;20620;-78
2022/05/04 09:25:53;;;;;;;6.73;6.07;;;22.40;54.80;;;-142.21;88.11;112049.66;5052484;28;20202;-78
2022/05/04 09:28:22;;;;;;;7.77;7.07;;;22.40;55.30;;;-142.21;85.14;112049.66;5052970;28;20186;-79
2022/05/04 09:30:51;;;;;;;9.87;6.90;;;22.20;54.70;;;-142.21;87.58;112049.66;5053111;28;20248;-77
2022/05/04 09:33:26;;;;;;;9.47;6.73;;;22.30;55.30;;;-142.21;80.13;112049.66;5052798;28;20232;-77
2022/05/04 09:35:55;;;;;;;7.53;6.77;;;22.40;53.40;;;-142.21;79.83;112049.66;5051972;28;20193;-78
2022/05/04 09:46:47;;;;;;;7.23;6.53;;;23.60;52.00;;;-142.21;70.61;112049.66;5044196;28;20196;-80
2022/05/04 09:49:18;;;;;;;8.23;7.50;;;23.80;52.60;;;-142.21;68.27;112049.66;5052000;28;20273;-79
2022/05/04 09:51:50;;;;;;;7.47;6.77;;;23.90;51.30;;;-142.21;66.33;112049.66;5052451;28;20193;-78
2022/05/04 09:54:21;;;;;;;8.40;7.60;;;23.80;51.40;;;-142.21;69.14;112049.66;5051966;28;20222;-79
2022/05/04 09:56:51;;;;;;;8.87;8.07;;;23.70;52.20;;;-142.21;63.56;112049.66;5052181;28;20245;-80
2022/05/04 09:59:21;;;;;;;11.00;8.10;;;23.80;51.90;;;-142.21;68.34;112049.66;5052582;28;20572;-80
2022/05/04 10:01:50;;;;;;;8.23;7.17;;;23.80;52.00;;;-142.21;70.87;112049.66;5052513;28;20241;-77
2022/05/04 10:04:18;;;;;;;10.03;7.10;;;23.70;53.00;;;-142.21;68.30;112049.66;5051938;28;20212;-80
2022/05/04 10:06:48;;;;;;;8.03;7.23;;;23.70;52.70;;;-142.21;68.43;112049.66;5052126;28;20267;-79
2022/05/04 10:09:15;;;;;;;8.07;6.97;;;23.70;51.50;;;-142.21;72.05;112049.66;5051933;28;20286;-79
2022/05/04 10:11:44;;;;;;;8.00;7.20;;;23.70;52.10;;;-142.21;67.65;112049.66;5052481;28;20632;-80
2022/05/04 10:14:15;;;;;;;7.70;6.93;;;23.50;51.40;;;-142.21;63.27;112049.66;5051806;28;20587;-79
2022/05/04 10:16:51;;;;;;;7.77;6.63;;;23.50;50.30;;;-142.21;64.43;112049.66;5052197;28;20262;-79
2022/05/04 10:19:26;;;;;;;8.13;7.17;;;23.50;50.10;;;-142.21;64.13;112049.66;5052172;28;20213;-78
2022/05/04 10:22:00;;;;;;;8.37;7.63;;;23.40;49.60;;;-142.21;70.35;112049.66;5051767;28;20189;-79
2022/05/04 10:24:35;;;;;;;8.13;7.33;;;23.30;50.40;;;-142.21;75.15;112049.66;5052300;28;20586;-78
2022/05/04 10:27:17;;;;;;;9.23;8.33;;;23.20;52.30;;;-142.21;88.06;112049.66;5051477;28;20231;-79
2022/05/04 10:32:42;;;;;;;11.30;9.63;;;22.80;53.90;;;-142.21;92.13;112049.66;5051820;28;20273;-79
2022/05/04 10:35:22;;;;;;;11.73;10.13;;;22.60;54.60;;;-142.21;100.00;112049.66;5051854;28;20216;-77